Time;durP1;ratioP1;P1;durP2;ratioP2;P2;SDS_P1;SDS_P2;PMS_P1;PMS_P2;Temp;Humidity;BMP_temperature;BMP_pressure;BME280_temperature;BME280_humidity;BME280_pressure;Samples;Min_cycle;Max_cycle;Signal;HPM_P1;HPM_P2
2021/01/23 00:00:41;;;;;;;5.35;3.13;;;3.30;99.90;;;;;;4925536;29;20096;-74
2021/01/23 00:03:08;;;;;;;7.22;3.13;;;3.40;99.90;;;;;;4924964;29;20139;-74
2021/01/23 00:05:34;;;;;;;8.20;2.88;;;3.40;99.90;;;;;;4942062;28;20058;-74
2021/01/23 00:08:02;;;;;;;9.48;3.55;;;3.50;99.90;;;;;;4922286;29;20048;-74
2021/01/23 00:10:31;;;;;;;7.38;2.97;;;3.50;99.90;;;;;;4924459;29;20094;-74
2021/01/23 00:12:58;;;;;;;9.23;3.50;;;3.60;99.90;;;;;;4921337;29;20505;-73
2021/01/23 00:15:24;;;;;;;7.50;2.95;;;3.60;99.90;;;;;;4930171;29;20056;-73
2021/01/23 00:17:50;;;;;;;8.57;3.42;;;3.50;99.90;;;;;;4943997;28;20585;-73
2021/01/23 00:20:17;;;;;;;5.50;3.55;;;3.40;99.90;;;;;;4930290;29;20351;-73
2021/01/23 00:22:43;;;;;;;7.60;3.95;;;3.30;99.90;;;;;;4928055;29;20051;-73
2021/01/23 00:25:10;;;;;;;9.45;4.32;;;3.30;99.90;;;;;;4929757;29;20056;-73
2021/01/23 00:27:39;;;;;;;8.38;4.72;;;3.40;99.90;;;;;;4927702;29;20084;-73
2021/01/23 00:30:07;;;;;;;12.40;5.47;;;3.30;99.90;;;;;;4933867;29;20082;-73
2021/01/23 00:32:34;;;;;;;7.70;4.78;;;3.30;99.90;;;;;;4937500;29;20055;-73
2021/01/23 00:35:02;;;;;;;9.55;5.75;;;3.40;99.90;;;;;;4928321;29;20427;-73
2021/01/23 00:37:29;;;;;;;11.90;5.60;;;3.40;99.90;;;;;;4928549;29;20129;-73
2021/01/23 00:39:55;;;;;;;12.65;6.38;;;3.40;99.90;;;;;;4929943;29;20059;-73
2021/01/23 00:42:21;;;;;;;11.95;5.93;;;3.40;99.90;;;;;;4928475;29;20123;-73
2021/01/23 00:44:48;;;;;;;12.07;6.45;;;3.30;99.90;;;;;;4929557;29;20194;-73
2021/01/23 00:47:14;;;;;;;11.40;5.65;;;3.40;99.90;;;;;;4929329;29;20589;-73
2021/01/23 00:49:40;;;;;;;10.90;5.55;;;3.30;99.90;;;;;;4930241;29;20056;-73
2021/01/23 00:52:07;;;;;;;10.45;6.15;;;3.30;99.90;;;;;;4924920;29;20483;-73
2021/01/23 00:54:33;;;;;;;9.18;5.32;;;3.40;99.90;;;;;;4921089;29;20481;-73
2021/01/23 00:57:00;;;;;;;9.25;5.60;;;3.30;99.90;;;;;;4931586;28;20538;-75
2021/01/23 00:59:26;;;;;;;9.63;4.82;;;3.30;99.90;;;;;;4929091;29;20047;-73
2021/01/23 01:01:52;;;;;;;10.90;5.93;;;3.30;99.90;;;;;;4930597;29;20127;-73
2021/01/23 01:04:19;;;;;;;9.27;5.97;;;3.20;99.90;;;;;;4935116;29;20079;-72
2021/01/23 01:06:45;;;;;;;10.95;5.45;;;3.20;99.90;;;;;;4943779;29;20051;-72
2021/01/23 01:09:11;;;;;;;16.60;8.48;;;3.10;99.90;;;;;;4946123;29;20134;-73
2021/01/23 01:11:38;;;;;;;14.90;7.40;;;3.10;99.90;;;;;;4937561;29;20080;-72
2021/01/23 01:14:04;;;;;;;10.40;5.35;;;3.20;99.90;;;;;;4938107;28;20084;-73
2021/01/23 01:16:31;;;;;;;12.48;6.13;;;3.20;99.90;;;;;;4928901;29;20051;-73
2021/01/23 01:18:57;;;;;;;10.43;4.88;;;3.20;99.90;;;;;;4936308;29;20235;-73
2021/01/23 01:21:24;;;;;;;11.80;5.28;;;3.20;99.90;;;;;;4936785;29;20143;-73
2021/01/23 01:23:50;;;;;;;13.80;6.50;;;3.30;99.90;;;;;;4930193;29;20130;-73
2021/01/23 01:26:17;;;;;;;10.98;4.75;;;3.20;99.90;;;;;;4930854;29;20122;-73
2021/01/23 01:28:43;;;;;;;9.45;5.10;;;3.20;99.90;;;;;;4939430;29;20086;-73
2021/01/23 01:31:10;;;;;;;10.82;5.22;;;3.20;99.90;;;;;;4947423;28;20079;-73
2021/01/23 01:33:36;;;;;;;11.52;5.20;;;3.20;99.90;;;;;;4930512;29;20498;-73
2021/01/23 01:36:03;;;;;;;10.45;5.35;;;3.10;99.90;;;;;;4931909;29;20103;-73
2021/01/23 01:38:30;;;;;;;10.27;5.90;;;3.20;99.90;;;;;;4935072;29;20055;-73
2021/01/23 01:40:57;;;;;;;10.80;6.18;;;3.10;99.90;;;;;;4949422;28;20078;-73
2021/01/23 01:43:23;;;;;;;13.43;6.68;;;3.10;99.90;;;;;;4951324;28;20110;-73
2021/01/23 01:45:49;;;;;;;9.63;5.63;;;3.10;99.90;;;;;;4944920;28;20150;-73
2021/01/23 01:48:16;;;;;;;16.63;8.25;;;3.10;99.90;;;;;;4941876;28;20090;-73
2021/01/23 01:50:42;;;;;;;16.17;7.15;;;3.10;99.90;;;;;;4930420;29;20109;-72
2021/01/23 01:53:10;;;;;;;14.75;6.82;;;3.00;99.90;;;;;;4926454;29;20483;-73
2021/01/23 01:55:36;;;;;;;19.75;8.63;;;3.00;99.90;;;;;;4929178;29;20482;-73
2021/01/23 01:58:03;;;;;;;17.98;9.32;;;3.00;99.90;;;;;;4931692;29;20096;-73
2021/01/23 02:00:30;;;;;;;20.30;10.50;;;3.00;99.90;;;;;;4931667;29;20048;-73
2021/01/23 02:03:19;;;;;;;20.70;10.63;;;3.10;99.90;;;;;;4931225;29;20132;-73
2021/01/23 02:06:17;;;;;;;21.85;11.43;;;3.10;99.90;;;;;;4931760;29;20099;-73
2021/01/23 02:08:49;;;;;;;19.58;9.88;;;3.00;99.90;;;;;;4931831;29;20170;-73
2021/01/23 02:11:40;;;;;;;21.65;10.95;;;2.90;99.90;;;;;;4945064;28;20057;-73
2021/01/23 02:14:19;;;;;;;19.63;11.02;;;2.90;99.90;;;;;;4951000;28;20466;-73
2021/01/23 02:16:48;;;;;;;30.50;13.57;;;2.90;99.90;;;;;;4948644;28;20071;-73
2021/01/23 02:19:15;;;;;;;18.77;10.75;;;2.80;99.90;;;;;;4936821;29;20074;-73
2021/01/23 02:22:15;;;;;;;21.40;11.05;;;2.80;99.90;;;;;;4933746;29;20522;-73
2021/01/23 02:24:44;;;;;;;21.40;11.73;;;2.80;99.90;;;;;;4934561;29;20079;-73
2021/01/23 02:27:24;;;;;;;21.60;10.48;;;2.80;99.90;;;;;;4915894;29;20416;-73
2021/01/23 02:30:07;;;;;;;26.20;11.63;;;2.70;99.90;;;;;;4941409;28;20168;-73
2021/01/23 02:32:37;;;;;;;19.38;11.10;;;2.70;99.90;;;;;;4938480;28;20094;-73
2021/01/23 02:35:07;;;;;;;21.73;11.13;;;2.70;99.90;;;;;;4934663;29;20051;-73
2021/01/23 02:37:34;;;;;;;19.20;10.48;;;2.70;99.90;;;;;;4934800;29;20098;-74
2021/01/23 02:40:02;;;;;;;19.25;11.05;;;2.70;99.90;;;;;;4943794;29;20574;-73
2021/01/23 02:42:29;;;;;;;16.85;10.07;;;2.70;99.90;;;;;;4966411;28;20446;-74
2021/01/23 02:44:56;;;;;;;16.10;9.73;;;2.70;99.90;;;;;;4948629;29;20055;-74
2021/01/23 02:47:22;;;;;;;23.33;10.88;;;2.70;99.90;;;;;;4936409;29;20090;-71
2021/01/23 02:49:49;;;;;;;23.92;12.02;;;2.70;99.90;;;;;;4940808;29;20058;-72
2021/01/23 02:52:35;;;;;;;20.70;11.63;;;2.80;99.90;;;;;;4945338;28;20051;-73
2021/01/23 02:55:07;;;;;;;15.93;9.88;;;2.70;99.90;;;;;;4937712;28;20043;-73
2021/01/23 02:57:34;;;;;;;19.33;10.63;;;2.60;99.90;;;;;;4924267;29;20048;-73
2021/01/23 03:00:07;;;;;;;18.30;10.57;;;2.60;99.90;;;;;;4941116;29;20506;-73
2021/01/23 03:02:41;;;;;;;22.73;11.38;;;2.60;99.90;;;;;;4930647;29;20130;-73
2021/01/23 03:05:09;;;;;;;19.08;9.27;;;2.60;99.90;;;;;;4931909;29;20370;-74
2021/01/23 03:07:35;;;;;;;16.83;9.02;;;2.60;99.90;;;;;;4933317;29;20094;-73
2021/01/23 03:10:07;;;;;;;19.08;10.50;;;2.60;99.90;;;;;;4941892;29;20489;-73
2021/01/23 03:12:33;;;;;;;19.63;11.55;;;2.60;99.90;;;;;;4937447;28;20202;-72
2021/01/23 03:15:00;;;;;;;27.77;10.88;;;2.60;99.90;;;;;;4941815;29;20078;-73
2021/01/23 03:17:27;;;;;;;18.65;10.80;;;2.60;99.90;;;;;;4945136;28;20126;-72
2021/01/23 03:19:54;;;;;;;18.02;10.25;;;2.70;99.90;;;;;;4946407;29;20556;-72
2021/01/23 03:22:20;;;;;;;17.75;9.95;;;2.70;99.90;;;;;;4933067;29;20128;-72
2021/01/23 03:24:47;;;;;;;20.35;10.98;;;2.60;99.90;;;;;;4937566;29;20138;-73
2021/01/23 03:27:13;;;;;;;19.35;9.05;;;2.60;99.90;;;;;;4953245;28;20051;-72
2021/01/23 03:29:39;;;;;;;17.63;8.77;;;2.70;99.90;;;;;;4948250;28;20091;-73
2021/01/23 03:32:06;;;;;;;19.92;9.80;;;2.60;99.90;;;;;;4935885;29;20083;-73
2021/01/23 03:34:33;;;;;;;14.05;7.22;;;2.60;99.90;;;;;;4942823;29;20047;-73
2021/01/23 03:36:59;;;;;;;17.33;8.63;;;2.60;99.90;;;;;;4947748;28;20131;-73
2021/01/23 03:39:25;;;;;;;16.17;8.35;;;2.60;99.90;;;;;;4947638;29;20107;-72
2021/01/23 03:41:52;;;;;;;19.13;9.93;;;2.50;99.90;;;;;;4948432;29;20086;-73
2021/01/23 03:44:18;;;;;;;21.83;10.27;;;2.50;99.90;;;;;;4941175;29;20060;-73
2021/01/23 03:46:44;;;;;;;16.85;9.57;;;2.50;99.90;;;;;;4928681;29;20108;-73
2021/01/23 03:49:11;;;;;;;21.65;11.65;;;2.60;99.90;;;;;;4931354;28;20154;-73
2021/01/23 03:51:37;;;;;;;23.95;10.02;;;2.70;99.90;;;;;;4937288;29;20091;-73
2021/01/23 03:54:04;;;;;;;19.48;9.88;;;2.60;99.90;;;;;;4931555;29;20126;-73
2021/01/23 03:56:30;;;;;;;20.25;9.77;;;2.60;99.90;;;;;;4932399;29;20106;-72
2021/01/23 03:58:56;;;;;;;16.55;10.23;;;2.60;99.90;;;;;;4932531;29;20048;-73
2021/01/23 04:01:23;;;;;;;25.65;10.48;;;2.70;99.90;;;;;;4947797;29;20047;-72
2021/01/23 04:03:49;;;;;;;16.45;9.43;;;2.60;99.90;;;;;;4933346;29;20055;-72
2021/01/23 04:06:15;;;;;;;18.67;9.27;;;2.60;99.90;;;;;;4939372;29;20043;-73
2021/01/23 04:08:42;;;;;;;22.52;12.93;;;2.70;99.90;;;;;;4947219;29;20135;-72
2021/01/23 04:11:08;;;;;;;12.98;6.95;;;2.60;99.90;;;;;;4934412;28;20055;-73
2021/01/23 04:13:34;;;;;;;14.93;8.00;;;2.60;99.90;;;;;;4928397;29;20115;-73
2021/01/23 04:16:01;;;;;;;22.08;10.13;;;2.60;99.90;;;;;;4930527;29;20092;-73
2021/01/23 04:18:28;;;;;;;18.40;9.23;;;2.60;99.90;;;;;;4933500;28;20052;-72
2021/01/23 04:20:54;;;;;;;18.70;10.20;;;2.60;99.90;;;;;;4931991;29;20131;-72
2021/01/23 04:23:21;;;;;;;16.88;8.95;;;2.50;99.90;;;;;;4940577;29;20057;-73
2021/01/23 04:25:47;;;;;;;17.27;9.95;;;2.60;99.90;;;;;;4943729;28;20598;-73
2021/01/23 04:28:15;;;;;;;19.50;10.35;;;2.50;99.90;;;;;;4931653;29;20074;-72
2021/01/23 04:30:43;;;;;;;15.75;6.45;;;2.50;99.90;;;;;;4939317;29;20051;-73
2021/01/23 04:33:09;;;;;;;25.40;11.40;;;2.40;99.90;;;;;;4950810;28;20055;-72
2021/01/23 04:35:36;;;;;;;18.20;9.80;;;2.40;99.90;;;;;;4931364;29;20527;-73
2021/01/23 04:38:03;;;;;;;22.10;10.93;;;2.40;99.90;;;;;;4951370;28;20048;-72
2021/01/23 04:40:31;;;;;;;20.15;11.80;;;2.40;99.90;;;;;;4952307;29;20074;-73
2021/01/23 04:42:57;;;;;;;21.10;11.82;;;2.40;99.90;;;;;;4933068;28;20047;-73
2021/01/23 04:45:24;;;;;;;16.40;9.82;;;2.40;99.90;;;;;;4939910;29;20127;-72
2021/01/23 04:47:54;;;;;;;21.52;11.48;;;2.40;99.90;;;;;;4947139;29;20107;-73
2021/01/23 04:50:21;;;;;;;17.33;10.30;;;2.40;99.90;;;;;;4931586;29;20051;-72
2021/01/23 04:52:47;;;;;;;22.08;13.13;;;2.40;99.90;;;;;;4932096;28;20115;-72
2021/01/23 04:55:14;;;;;;;23.30;11.98;;;2.40;99.90;;;;;;4931928;29;20479;-72
2021/01/23 04:57:44;;;;;;;24.27;12.48;;;2.30;99.90;;;;;;4935479;28;20076;-73
2021/01/23 05:00:12;;;;;;;18.73;10.25;;;2.30;99.90;;;;;;4931754;29;20078;-73
2021/01/23 05:02:39;;;;;;;23.17;13.68;;;2.20;99.90;;;;;;4951652;29;20105;-72
2021/01/23 05:05:07;;;;;;;28.08;14.32;;;2.20;99.90;;;;;;4934978;28;20051;-73
2021/01/23 05:07:36;;;;;;;21.02;10.38;;;2.30;99.90;;;;;;4932377;29;20079;-73
2021/01/23 05:10:17;;;;;;;24.85;12.75;;;2.20;99.90;;;;;;4931961;29;20135;-73
2021/01/23 05:12:45;;;;;;;24.50;13.77;;;2.20;99.90;;;;;;4932303;29;20060;-73
2021/01/23 05:15:18;;;;;;;27.92;12.75;;;2.20;99.90;;;;;;4934902;29;20039;-72
2021/01/23 05:18:09;;;;;;;39.33;14.35;;;2.20;99.90;;;;;;4941713;29;20177;-73
2021/01/23 05:20:53;;;;;;;35.08;16.23;;;2.20;99.90;;;;;;4937884;28;20131;-72
2021/01/23 05:23:30;;;;;;;41.03;13.85;;;2.20;99.90;;;;;;4931522;29;20130;-72
2021/01/23 05:25:58;;;;;;;28.55;12.73;;;2.10;99.90;;;;;;4941715;29;20098;-73
2021/01/23 05:28:33;;;;;;;39.50;14.65;;;2.10;99.90;;;;;;4921642;29;20110;-72
2021/01/23 05:31:01;;;;;;;37.50;17.48;;;2.10;99.90;;;;;;4937640;29;20138;-73
2021/01/23 05:33:33;;;;;;;32.78;16.90;;;2.10;99.90;;;;;;4930107;29;20068;-73
2021/01/23 05:36:09;;;;;;;34.17;15.65;;;2.20;99.90;;;;;;4924507;29;20048;-73
2021/01/23 05:38:36;;;;;;;39.75;16.10;;;2.30;99.90;;;;;;4931028;29;20056;-73
2021/01/23 05:41:08;;;;;;;37.42;14.43;;;2.30;99.90;;;;;;4932065;29;20133;-73
2021/01/23 05:43:37;;;;;;;31.50;16.90;;;2.40;99.90;;;;;;4923545;29;20116;-73
2021/01/23 05:46:06;;;;;;;44.30;19.83;;;2.40;99.90;;;;;;4934091;29;20155;-73
2021/01/23 05:48:35;;;;;;;25.23;13.30;;;2.30;99.90;;;;;;4935294;29;20138;-72
2021/01/23 05:51:03;;;;;;;33.25;16.45;;;2.20;99.90;;;;;;4945151;28;20114;-72
2021/01/23 05:53:30;;;;;;;34.03;18.27;;;2.30;99.90;;;;;;4935254;29;20134;-72
2021/01/23 05:56:01;;;;;;;28.83;14.18;;;2.30;99.90;;;;;;4937163;29;20052;-72
2021/01/23 05:58:32;;;;;;;47.03;20.45;;;2.30;99.90;;;;;;4949758;28;20114;-72
2021/01/23 06:01:01;;;;;;;31.90;17.02;;;2.30;99.90;;;;;;4937188;29;20143;-72
2021/01/23 06:03:33;;;;;;;36.20;17.63;;;2.40;99.90;;;;;;4936834;29;20126;-73
2021/01/23 06:05:59;;;;;;;32.25;18.33;;;2.30;99.90;;;;;;4935985;29;20059;-72
2021/01/23 06:08:45;;;;;;;29.95;15.00;;;2.40;99.90;;;;;;4942785;29;20138;-73
2021/01/23 06:11:20;;;;;;;36.95;20.10;;;2.40;99.90;;;;;;4936049;28;20087;-72
2021/01/23 06:13:48;;;;;;;33.47;17.88;;;2.50;99.90;;;;;;4946093;29;20158;-72
2021/01/23 06:16:44;;;;;;;32.95;18.33;;;2.50;99.90;;;;;;4934426;29;20127;-72
2021/01/23 06:19:11;;;;;;;32.38;16.73;;;2.50;99.90;;;;;;4947885;28;20150;-72
2021/01/23 06:21:43;;;;;;;36.83;18.85;;;2.50;99.90;;;;;;4934441;29;20561;-72
2021/01/23 06:24:11;;;;;;;34.97;18.88;;;2.50;99.90;;;;;;4949156;28;20063;-72
2021/01/23 06:26:52;;;;;;;35.05;18.75;;;2.60;99.90;;;;;;4942178;28;20320;-73
2021/01/23 06:29:40;;;;;;;30.70;15.07;;;2.50;99.90;;;;;;4936887;29;20197;-72
2021/01/23 06:32:12;;;;;;;34.95;16.98;;;2.60;99.90;;;;;;4933870;29;20248;-73
2021/01/23 06:34:59;;;;;;;32.20;17.95;;;2.60;99.90;;;;;;4937511;29;20043;-72
2021/01/23 06:37:33;;;;;;;30.92;16.42;;;2.60;99.90;;;;;;4922757;29;20467;-73
2021/01/23 06:40:03;;;;;;;36.20;17.40;;;2.60;99.90;;;;;;4933658;29;20079;-72
2021/01/23 06:42:31;;;;;;;31.98;16.92;;;2.60;99.90;;;;;;4939905;29;20070;-72
2021/01/23 06:45:33;;;;;;;28.88;16.02;;;2.70;99.90;;;;;;4934745;29;20047;-72
2021/01/23 06:48:00;;;;;;;34.10;17.05;;;2.70;99.90;;;;;;4946269;28;20066;-72
2021/01/23 06:50:31;;;;;;;22.02;13.70;;;2.70;99.90;;;;;;4946198;29;20055;-72
2021/01/23 06:52:59;;;;;;;29.70;14.43;;;2.60;99.90;;;;;;4949042;28;20506;-72
2021/01/23 06:55:40;;;;;;;26.35;11.95;;;2.70;99.90;;;;;;4932962;29;20561;-72
2021/01/23 06:58:21;;;;;;;25.92;14.32;;;2.70;99.90;;;;;;4926346;29;20107;-73
2021/01/23 07:00:49;;;;;;;31.60;13.98;;;2.70;99.90;;;;;;4928167;29;20107;-72
2021/01/23 07:03:16;;;;;;;24.88;10.57;;;2.70;99.90;;;;;;4933956;29;20122;-73
2021/01/23 07:05:52;;;;;;;21.08;10.27;;;2.70;99.90;;;;;;4932948;29;20047;-72
2021/01/23 07:08:23;;;;;;;28.80;13.38;;;2.80;99.90;;;;;;4933899;29;20052;-72
2021/01/23 07:11:12;;;;;;;24.98;12.27;;;2.80;99.90;;;;;;4945939;29;20074;-72
2021/01/23 07:14:15;;;;;;;24.52;11.98;;;2.80;99.90;;;;;;4934115;29;20478;-73
2021/01/23 07:16:55;;;;;;;21.48;11.23;;;2.70;99.90;;;;;;4914915;29;20052;-72
2021/01/23 07:19:26;;;;;;;30.83;13.00;;;2.70;99.90;;;;;;4938384;29;20437;-72
2021/01/23 07:21:56;;;;;;;25.75;11.68;;;2.70;99.90;;;;;;4935319;28;20127;-72
2021/01/23 07:24:23;;;;;;;19.35;10.73;;;2.80;99.90;;;;;;4949730;29;20055;-72
2021/01/23 07:26:50;;;;;;;18.88;9.88;;;2.80;99.90;;;;;;4944005;28;20059;-72
2021/01/23 07:29:17;;;;;;;29.63;12.23;;;2.80;99.90;;;;;;4950284;29;20135;-72
2021/01/23 07:31:43;;;;;;;19.48;8.40;;;2.90;99.90;;;;;;4932222;29;20056;-72
2021/01/23 07:34:12;;;;;;;18.58;10.43;;;2.90;99.90;;;;;;4933897;29;20051;-72
2021/01/23 07:36:42;;;;;;;20.45;10.98;;;2.90;99.90;;;;;;4936132;28;20054;-72
2021/01/23 07:39:19;;;;;;;19.40;11.70;;;2.80;99.90;;;;;;4948468;28;20186;-72
2021/01/23 07:41:45;;;;;;;22.02;10.57;;;2.90;99.90;;;;;;4936388;28;20126;-72
2021/01/23 07:44:12;;;;;;;25.80;13.73;;;2.90;99.90;;;;;;4934111;29;20143;-72
2021/01/23 07:46:44;;;;;;;23.40;12.00;;;2.90;99.90;;;;;;4936303;28;20055;-72
2021/01/23 07:49:25;;;;;;;23.70;11.68;;;2.90;99.90;;;;;;4933620;29;20533;-72
2021/01/23 07:52:03;;;;;;;24.48;13.02;;;2.90;99.90;;;;;;4937342;29;20051;-72
2021/01/23 07:54:30;;;;;;;19.77;10.73;;;2.90;99.90;;;;;;4944798;29;20167;-73
2021/01/23 07:56:57;;;;;;;23.65;12.75;;;2.90;99.90;;;;;;4933011;29;20075;-72
2021/01/23 07:59:41;;;;;;;27.58;12.05;;;3.00;99.90;;;;;;4928965;29;20051;-72
2021/01/23 08:02:07;;;;;;;19.35;9.15;;;2.90;99.90;;;;;;4942013;29;20047;-72
2021/01/23 08:04:36;;;;;;;21.50;11.48;;;3.00;99.90;;;;;;4947581;29;20062;-72
2021/01/23 08:07:23;;;;;;;12.07;6.95;;;3.00;99.90;;;;;;4929789;29;20043;-72
2021/01/23 08:10:10;;;;;;;21.65;11.07;;;3.00;99.90;;;;;;4940849;29;20055;-72
2021/01/23 08:12:56;;;;;;;24.17;11.07;;;3.00;99.90;;;;;;4948871;28;20134;-72
2021/01/23 08:15:27;;;;;;;17.05;10.30;;;3.00;99.90;;;;;;4943625;29;20130;-72
2021/01/23 08:17:55;;;;;;;18.60;10.02;;;3.10;99.90;;;;;;4951376;28;20087;-71
2021/01/23 08:20:35;;;;;;;20.23;9.73;;;3.10;99.90;;;;;;4949128;29;20086;-72
2021/01/23 08:23:09;;;;;;;21.05;10.63;;;3.10;99.90;;;;;;4949301;29;20388;-72
2021/01/23 08:25:57;;;;;;;20.10;9.70;;;3.20;99.90;;;;;;4931232;28;20234;-72
2021/01/23 08:28:32;;;;;;;14.25;8.70;;;3.20;99.90;;;;;;4936905;28;20051;-72
2021/01/23 08:31:19;;;;;;;15.93;9.48;;;3.20;99.90;;;;;;4936718;28;20048;-72
2021/01/23 08:33:52;;;;;;;18.02;8.48;;;3.20;99.90;;;;;;4931123;29;20458;-72
2021/01/23 08:36:19;;;;;;;13.65;7.03;;;3.20;99.90;;;;;;4932210;29;20047;-72
2021/01/23 08:38:46;;;;;;;16.38;6.55;;;3.20;99.90;;;;;;4946824;28;20103;-72
2021/01/23 08:41:13;;;;;;;16.08;9.07;;;3.20;99.90;;;;;;4953511;28;20063;-72
2021/01/23 08:43:39;;;;;;;20.83;11.10;;;3.20;99.90;;;;;;4932489;28;20234;-69
2021/01/23 08:46:05;;;;;;;18.25;8.88;;;3.30;99.90;;;;;;4934833;29;20059;-73
2021/01/23 08:48:32;;;;;;;19.77;8.35;;;3.30;99.90;;;;;;4928371;29;20039;-72
2021/01/23 08:50:58;;;;;;;15.68;6.63;;;3.30;99.90;;;;;;4946066;28;20106;-72
2021/01/23 08:53:25;;;;;;;13.57;6.57;;;3.30;99.90;;;;;;4931807;29;20141;-71
2021/01/23 08:55:51;;;;;;;20.25;8.40;;;3.30;99.90;;;;;;4926769;29;20150;-72
2021/01/23 08:58:17;;;;;;;14.48;7.03;;;3.30;99.90;;;;;;4927678;28;20107;-71
2021/01/23 09:00:44;;;;;;;13.85;6.32;;;3.30;99.90;;;;;;4929161;29;20075;-72
2021/01/23 09:03:11;;;;;;;14.02;6.85;;;3.40;99.90;;;;;;4928675;29;20436;-72
2021/01/23 09:05:37;;;;;;;15.60;7.07;;;3.40;99.90;;;;;;4928558;29;20107;-72
2021/01/23 09:08:04;;;;;;;20.35;6.30;;;3.40;99.90;;;;;;4929930;28;20047;-72
2021/01/23 09:10:30;;;;;;;21.67;7.47;;;3.30;99.90;;;;;;4930694;29;20058;-71
2021/01/23 09:12:57;;;;;;;15.85;6.80;;;3.40;99.90;;;;;;4924689;29;20054;-71
2021/01/23 09:15:23;;;;;;;9.85;4.65;;;3.40;99.90;;;;;;4929850;28;20138;-72
2021/01/23 09:17:49;;;;;;;12.93;5.90;;;3.50;99.90;;;;;;4925889;29;20087;-72
2021/01/23 09:20:16;;;;;;;8.25;3.80;;;3.50;99.90;;;;;;4942276;28;20490;-72
2021/01/23 09:22:42;;;;;;;9.57;3.97;;;3.50;99.90;;;;;;4930867;28;20638;-72
2021/01/23 09:25:09;;;;;;;5.97;2.85;;;3.50;99.90;;;;;;4928889;29;20138;-71
2021/01/23 09:27:36;;;;;;;11.23;4.97;;;3.50;99.90;;;;;;4934433;28;20120;-71
2021/01/23 09:30:04;;;;;;;13.25;4.13;;;3.60;99.90;;;;;;4931190;28;20055;-72
2021/01/23 09:32:30;;;;;;;11.20;3.72;;;3.50;99.90;;;;;;4932567;29;20059;-72
2021/01/23 09:34:57;;;;;;;11.70;4.88;;;3.50;99.90;;;;;;4936023;28;20047;-72
2021/01/23 09:37:25;;;;;;;11.43;4.20;;;3.50;99.90;;;;;;4932922;29;20126;-71
2021/01/23 09:39:52;;;;;;;10.35;5.53;;;3.60;99.90;;;;;;4937958;29;20466;-72
2021/01/23 09:42:19;;;;;;;12.75;6.20;;;3.60;99.90;;;;;;4932854;29;20163;-72
2021/01/23 09:44:46;;;;;;;10.90;3.58;;;3.60;99.90;;;;;;4943090;29;20102;-72
2021/01/23 09:47:14;;;;;;;10.55;4.43;;;3.60;99.90;;;;;;4934632;29;20151;-72
2021/01/23 09:49:41;;;;;;;9.57;3.42;;;3.60;99.90;;;;;;4929297;29;20134;-71
2021/01/23 09:52:07;;;;;;;11.45;4.53;;;3.50;99.90;;;;;;4942349;28;20126;-72
2021/01/23 09:54:33;;;;;;;7.78;3.80;;;3.60;99.90;;;;;;4926541;29;20410;-72
2021/01/23 09:57:04;;;;;;;13.10;4.38;;;3.50;99.90;;;;;;4934193;29;20103;-72
2021/01/23 09:59:30;;;;;;;18.42;4.75;;;3.60;99.90;;;;;;4929990;29;20107;-72
2021/01/23 10:02:02;;;;;;;18.52;3.67;;;3.60;99.90;;;;;;4927397;29;20054;-72
2021/01/23 10:04:29;;;;;;;14.98;5.53;;;3.70;99.90;;;;;;4930516;29;20058;-72
2021/01/23 10:06:56;;;;;;;7.18;3.63;;;3.70;99.90;;;;;;4927265;29;20528;-72
2021/01/23 10:09:23;;;;;;;16.98;5.90;;;3.60;99.90;;;;;;4931012;29;20052;-71
2021/01/23 10:11:50;;;;;;;8.85;3.63;;;3.70;99.90;;;;;;4932538;29;20059;-72
2021/01/23 10:14:18;;;;;;;10.32;2.13;;;3.60;99.90;;;;;;4934318;29;20051;-72
2021/01/23 10:16:44;;;;;;;10.15;2.78;;;3.60;99.90;;;;;;4936368;29;20072;-71
2021/01/23 10:19:11;;;;;;;13.23;3.13;;;3.60;99.90;;;;;;4934405;29;20506;-72
2021/01/23 10:21:38;;;;;;;7.40;2.35;;;3.50;99.90;;;;;;4933185;29;20080;-70
2021/01/23 10:24:05;;;;;;;13.63;3.72;;;3.50;99.90;;;;;;4932985;29;20471;-73
2021/01/23 10:26:32;;;;;;;7.45;3.53;;;3.50;99.90;;;;;;4930879;29;20137;-73
2021/01/23 10:28:59;;;;;;;8.45;2.70;;;3.60;99.90;;;;;;4932351;29;20099;-73
2021/01/23 10:31:26;;;;;;;12.50;4.18;;;3.60;99.90;;;;;;4929061;29;20226;-73
2021/01/23 10:33:52;;;;;;;13.85;3.60;;;3.60;99.90;;;;;;4932953;29;20132;-73
2021/01/23 10:36:19;;;;;;;11.57;4.35;;;3.60;99.90;;;;;;4932260;29;20131;-72
2021/01/23 10:38:46;;;;;;;9.52;3.33;;;3.80;99.90;;;;;;4934402;29;20079;-71
2021/01/23 10:41:13;;;;;;;9.30;3.00;;;3.70;99.90;;;;;;4933865;29;20040;-71
2021/01/23 10:43:40;;;;;;;13.85;3.47;;;3.80;99.90;;;;;;4932200;29;20062;-73
2021/01/23 10:46:06;;;;;;;10.45;3.25;;;3.80;99.90;;;;;;4933686;29;20080;-73
2021/01/23 10:48:32;;;;;;;8.50;3.67;;;3.80;99.90;;;;;;4931786;29;20063;-71
2021/01/23 10:50:59;;;;;;;6.97;2.63;;;3.70;99.90;;;;;;4930658;29;20044;-73
2021/01/23 10:53:25;;;;;;;8.27;2.72;;;3.80;99.90;;;;;;4933426;29;20048;-73
2021/01/23 10:55:52;;;;;;;8.35;2.95;;;3.80;99.90;;;;;;4933450;29;20130;-72
2021/01/23 10:58:18;;;;;;;8.15;3.20;;;3.70;99.90;;;;;;4932697;29;20056;-73
2021/01/23 11:00:44;;;;;;;5.93;2.35;;;3.80;99.90;;;;;;4932192;29;20138;-72
2021/01/23 11:03:11;;;;;;;8.82;3.55;;;3.70;99.90;;;;;;4948269;29;20075;-71
2021/01/23 11:05:38;;;;;;;5.38;1.85;;;3.70;99.90;;;;;;4932393;29;20094;-71
2021/01/23 11:08:05;;;;;;;11.40;4.25;;;3.70;99.90;;;;;;4929279;29;20078;-72
2021/01/23 11:10:32;;;;;;;10.00;3.72;;;3.70;99.90;;;;;;4930903;28;20063;-73
2021/01/23 11:12:58;;;;;;;9.93;4.32;;;3.80;99.90;;;;;;4930308;29;20051;-72
2021/01/23 11:15:25;;;;;;;10.15;3.60;;;3.80;99.90;;;;;;4932008;29;20526;-73
2021/01/23 11:17:51;;;;;;;10.30;4.70;;;3.90;99.90;;;;;;4945885;28;20052;-70
2021/01/23 11:20:18;;;;;;;13.43;4.35;;;3.90;99.90;;;;;;4928223;29;20051;-73
2021/01/23 11:22:44;;;;;;;11.52;4.88;;;3.80;99.90;;;;;;4946897;28;20086;-71
2021/01/23 11:25:15;;;;;;;15.07;4.43;;;3.90;99.90;;;;;;4930123;29;20478;-71
2021/01/23 11:27:42;;;;;;;12.02;3.28;;;3.90;99.90;;;;;;4931444;29;20047;-71
2021/01/23 11:30:10;;;;;;;10.55;3.15;;;3.80;99.90;;;;;;4933513;29;20635;-73
2021/01/23 11:32:37;;;;;;;8.98;3.50;;;3.70;99.90;;;;;;4931265;29;20059;-72
2021/01/23 11:35:06;;;;;;;12.40;4.30;;;3.70;99.90;;;;;;4932242;29;20048;-72
2021/01/23 11:37:33;;;;;;;13.68;5.03;;;3.70;99.90;;;;;;4932824;29;20391;-72
2021/01/23 11:39:59;;;;;;;10.50;3.75;;;3.80;99.90;;;;;;4931286;29;20122;-71
2021/01/23 11:42:26;;;;;;;6.90;3.20;;;4.10;99.90;;;;;;4931745;29;20052;-72
2021/01/23 11:44:53;;;;;;;9.82;4.03;;;4.20;99.90;;;;;;4946234;29;20502;-72
2021/01/23 11:47:19;;;;;;;8.43;3.33;;;4.40;99.90;;;;;;4929493;29;20139;-73
2021/01/23 11:49:46;;;;;;;11.27;3.60;;;4.40;99.90;;;;;;4931017;29;20729;-73
2021/01/23 11:52:13;;;;;;;7.82;3.38;;;4.40;99.90;;;;;;4931221;29;20158;-71
2021/01/23 11:54:39;;;;;;;10.80;3.95;;;4.40;99.90;;;;;;4923992;29;20103;-72
2021/01/23 11:57:08;;;;;;;10.40;3.28;;;4.40;99.90;;;;;;4928574;29;20127;-71
2021/01/23 11:59:35;;;;;;;11.32;4.18;;;4.40;99.90;;;;;;4946808;29;20527;-72
2021/01/23 12:02:02;;;;;;;11.10;4.15;;;4.50;99.90;;;;;;4930572;29;20075;-70
2021/01/23 12:04:29;;;;;;;10.15;4.05;;;4.30;99.90;;;;;;4930613;29;20530;-71
2021/01/23 12:06:55;;;;;;;8.90;3.78;;;4.40;99.90;;;;;;4930504;29;20054;-71
2021/01/23 12:09:26;;;;;;;12.57;5.63;;;4.50;99.90;;;;;;4932437;29;20059;-70
2021/01/23 12:11:53;;;;;;;8.98;3.45;;;4.60;99.90;;;;;;4930306;29;20067;-71
2021/01/23 12:14:19;;;;;;;19.13;7.05;;;4.70;99.90;;;;;;4932688;29;20134;-73
2021/01/23 12:16:45;;;;;;;13.10;4.53;;;4.80;99.90;;;;;;4930770;29;20075;-72
2021/01/23 12:19:12;;;;;;;8.02;2.13;;;4.70;99.90;;;;;;4928821;29;20134;-72
2021/01/23 12:21:38;;;;;;;8.07;3.33;;;4.70;99.90;;;;;;4932713;29;20057;-72
2021/01/23 12:24:06;;;;;;;6.72;2.47;;;4.60;99.90;;;;;;4932070;29;20126;-73
2021/01/23 12:26:34;;;;;;;13.32;3.97;;;4.60;99.90;;;;;;4945387;28;20062;-74
2021/01/23 12:29:01;;;;;;;8.88;3.28;;;4.60;99.90;;;;;;4924869;29;20071;-72
2021/01/23 12:31:27;;;;;;;8.68;2.78;;;4.50;99.90;;;;;;4945789;29;20074;-73
2021/01/23 12:33:54;;;;;;;10.03;3.13;;;4.50;99.90;;;;;;4931290;29;20043;-73
2021/01/23 12:36:20;;;;;;;10.32;4.43;;;4.50;99.90;;;;;;4942491;28;20107;-73
2021/01/23 12:38:47;;;;;;;8.45;2.95;;;4.40;99.90;;;;;;4931492;29;20150;-72
2021/01/23 12:41:13;;;;;;;7.85;2.38;;;4.40;99.90;;;;;;4939705;29;20483;-72
2021/01/23 12:43:40;;;;;;;19.23;6.18;;;4.50;99.90;;;;;;4929343;29;20054;-72
2021/01/23 12:46:06;;;;;;;12.73;3.80;;;4.60;99.90;;;;;;4930683;29;20515;-72
2021/01/23 12:48:33;;;;;;;7.57;2.20;;;4.70;99.90;;;;;;4930575;29;20138;-72
2021/01/23 12:50:59;;;;;;;6.60;2.20;;;5.00;99.90;;;;;;4946152;29;20087;-72
2021/01/23 12:53:25;;;;;;;10.40;3.80;;;5.00;99.90;;;;;;4930903;29;20079;-72
2021/01/23 12:55:52;;;;;;;7.60;2.58;;;5.00;99.90;;;;;;4930727;29;20080;-72